Timmins/Victor M. Power
CYTS : now visible

Airfield :











YOU CAN JOIN US ON...

 
LOGIN :

Register | Disclaimer

   EN    FR    IT 

 









Legend :    VFR   Marginal VFR   IFR   Intensive IFR   Very Intensive IFR
Visi :
Ceiling :
>= 8 km
>= 3000ft
5 to 8 km
1000 to 3000 ft
1500m to 5 km
500 to 1000 ft
800 to 1500m
200 to 500 ft
< 800m
< 200 ft
Symbols :   Thunderstorms  Fog  Heavy snow  Heavy precipitations  Wind > 20 kt






- Airport Elevation : 967 ft
- IATA code : YTS


CYTS - Timmins/Victor M. Power

CURRENT METAR :
  • 231400Z 16003KT 15SM SCT140 BKN170 BKN200 M06/M06 A2980 RMK AC4AC1CI2 SLP108

EXPIRED METARs :
  • 231300Z 18004KT 15SM BKN160 M07/M07 A2981 RMK AC5 SLP112
  • 231200Z 19005KT 15SM SCT160 M07/M07 A2981 RMK AC3 SLP113

TAF TAF CYTS
Valid from the 23 at 14:00 until the 24 at 02:00 UTC


231339Z 2314/2402 18005KT P6SM SCT160
TEMPO 2314/2316 4SM BR BKN012 BKN160
FM232000 17012KT P6SM BKN030 BKN180
FM232200 18012KT P6SM OVC025
TEMPO 2322/2402 4SM -SHRA BR OVC015 RMK NXT FCST BY 232000Z



MET'MAP, your aeronautical weather chart ! - Copyright ORBIFLY December 2007 - Disclaimer

ORBIFLY MET'MAP TEAM :

Programming & Development : Alexandra Zaïnal
Concept & original design : Baudouin d'Aumeries
Assistance for programming : Marc-Olivier Méhu
Technical & hardware support : Manuel Goepfert

Contact : metmap@orbifly.com




SOURCES & CREDITS :

   NOAA       Earth
Advisory